sensor_id;sensor_type;location;lat;lon;timestamp;P1;durP1;ratioP1;P2;durP2;ratioP2
71462;SDS011;59266;52.608;13.260;2022-12-29T00:01:02;4.88;;;1.52;;
71462;SDS011;59266;52.608;13.260;2022-12-29T00:03:29;8.48;;;1.90;;
71462;SDS011;59266;52.608;13.260;2022-12-29T00:05:56;4.57;;;1.52;;
71462;SDS011;59266;52.608;13.260;2022-12-29T00:08:24;6.15;;;1.70;;
71462;SDS011;59266;52.608;13.260;2022-12-29T00:11:10;5.05;;;1.90;;
71462;SDS011;59266;52.608;13.260;2022-12-29T00:13:38;6.90;;;1.75;;
71462;SDS011;59266;52.608;13.260;2022-12-29T00:16:24;6.30;;;1.63;;
71462;SDS011;59266;52.608;13.260;2022-12-29T00:18:52;5.20;;;1.63;;
71462;SDS011;59266;52.608;13.260;2022-12-29T00:21:19;7.50;;;1.90;;
71462;SDS011;59266;52.608;13.260;2022-12-29T00:24:08;4.53;;;1.70;;
71462;SDS011;59266;52.608;13.260;2022-12-29T00:26:43;4.35;;;1.48;;
71462;SDS011;59266;52.608;13.260;2022-12-29T00:29:28;6.35;;;1.60;;
71462;SDS011;59266;52.608;13.260;2022-12-29T00:32:15;6.43;;;1.60;;
71462;SDS011;59266;52.608;13.260;2022-12-29T00:35:16;5.78;;;1.85;;
71462;SDS011;59266;52.608;13.260;2022-12-29T00:37:55;5.50;;;1.80;;
71462;SDS011;59266;52.608;13.260;2022-12-29T00:40:43;5.63;;;1.83;;
71462;SDS011;59266;52.608;13.260;2022-12-29T00:43:29;6.60;;;2.13;;
71462;SDS011;59266;52.608;13.260;2022-12-29T00:46:14;6.15;;;1.55;;
71462;SDS011;59266;52.608;13.260;2022-12-29T00:48:45;3.75;;;1.45;;
71462;SDS011;59266;52.608;13.260;2022-12-29T00:51:30;5.72;;;1.60;;
71462;SDS011;59266;52.608;13.260;2022-12-29T00:53:57;5.43;;;1.80;;
71462;SDS011;59266;52.608;13.260;2022-12-29T00:56:23;5.63;;;1.75;;
71462;SDS011;59266;52.608;13.260;2022-12-29T00:58:53;4.57;;;1.63;;
71462;SDS011;59266;52.608;13.260;2022-12-29T01:01:19;5.78;;;1.85;;
71462;SDS011;59266;52.608;13.260;2022-12-29T01:03:46;5.93;;;1.67;;
71462;SDS011;59266;52.608;13.260;2022-12-29T01:06:14;6.25;;;1.67;;
71462;SDS011;59266;52.608;13.260;2022-12-29T01:08:40;6.30;;;1.70;;
71462;SDS011;59266;52.608;13.260;2022-12-29T01:11:08;6.88;;;2.00;;
71462;SDS011;59266;52.608;13.260;2022-12-29T01:13:39;4.72;;;1.70;;
71462;SDS011;59266;52.608;13.260;2022-12-29T01:16:07;4.85;;;1.50;;
71462;SDS011;59266;52.608;13.260;2022-12-29T01:18:34;6.38;;;1.92;;
71462;SDS011;59266;52.608;13.260;2022-12-29T01:21:04;6.40;;;1.88;;
71462;SDS011;59266;52.608;13.260;2022-12-29T01:23:33;4.25;;;1.45;;
71462;SDS011;59266;52.608;13.260;2022-12-29T01:26:13;7.68;;;1.85;;
71462;SDS011;59266;52.608;13.260;2022-12-29T01:28:40;4.90;;;1.60;;
71462;SDS011;59266;52.608;13.260;2022-12-29T01:31:08;6.10;;;1.63;;
71462;SDS011;59266;52.608;13.260;2022-12-29T01:33:37;5.22;;;1.83;;
71462;SDS011;59266;52.608;13.260;2022-12-29T01:36:04;4.45;;;1.60;;
71462;SDS011;59266;52.608;13.260;2022-12-29T01:38:36;7.22;;;1.90;;
71462;SDS011;59266;52.608;13.260;2022-12-29T01:41:04;4.95;;;1.73;;
71462;SDS011;59266;52.608;13.260;2022-12-29T01:46:18;5.03;;;1.60;;
71462;SDS011;59266;52.608;13.260;2022-12-29T01:49:02;6.47;;;1.70;;
71462;SDS011;59266;52.608;13.260;2022-12-29T01:51:42;5.70;;;1.92;;
71462;SDS011;59266;52.608;13.260;2022-12-29T01:54:26;5.20;;;1.85;;
71462;SDS011;59266;52.608;13.260;2022-12-29T01:56:57;7.85;;;1.98;;
71462;SDS011;59266;52.608;13.260;2022-12-29T01:59:28;5.43;;;1.65;;
71462;SDS011;59266;52.608;13.260;2022-12-29T02:01:57;5.60;;;1.90;;
71462;SDS011;59266;52.608;13.260;2022-12-29T02:04:23;7.05;;;1.60;;
71462;SDS011;59266;52.608;13.260;2022-12-29T02:06:53;4.60;;;1.60;;
71462;SDS011;59266;52.608;13.260;2022-12-29T02:09:23;6.10;;;1.80;;
71462;SDS011;59266;52.608;13.260;2022-12-29T02:11:50;5.78;;;1.60;;
71462;SDS011;59266;52.608;13.260;2022-12-29T02:14:18;5.90;;;1.80;;
71462;SDS011;59266;52.608;13.260;2022-12-29T02:16:51;5.57;;;1.80;;
71462;SDS011;59266;52.608;13.260;2022-12-29T02:22:45;5.22;;;1.80;;
71462;SDS011;59266;52.608;13.260;2022-12-29T02:25:38;5.03;;;1.70;;
71462;SDS011;59266;52.608;13.260;2022-12-29T02:28:40;5.15;;;1.65;;
71462;SDS011;59266;52.608;13.260;2022-12-29T02:31:31;5.90;;;1.52;;
71462;SDS011;59266;52.608;13.260;2022-12-29T02:34:15;5.65;;;1.50;;
71462;SDS011;59266;52.608;13.260;2022-12-29T02:37:13;6.57;;;1.58;;
71462;SDS011;59266;52.608;13.260;2022-12-29T02:39:51;10.48;;;1.80;;
71462;SDS011;59266;52.608;13.260;2022-12-29T02:42:31;5.55;;;1.83;;
71462;SDS011;59266;52.608;13.260;2022-12-29T02:48:04;4.75;;;1.77;;
71462;SDS011;59266;52.608;13.260;2022-12-29T02:50:37;6.68;;;1.77;;
71462;SDS011;59266;52.608;13.260;2022-12-29T02:53:14;7.60;;;1.73;;
71462;SDS011;59266;52.608;13.260;2022-12-29T02:56:04;6.50;;;1.70;;
71462;SDS011;59266;52.608;13.260;2022-12-29T02:58:35;6.00;;;1.77;;
71462;SDS011;59266;52.608;13.260;2022-12-29T03:09:57;5.38;;;1.60;;
71462;SDS011;59266;52.608;13.260;2022-12-29T03:12:31;4.68;;;1.52;;
71462;SDS011;59266;52.608;13.260;2022-12-29T03:18:49;5.68;;;1.63;;
71462;SDS011;59266;52.608;13.260;2022-12-29T03:24:24;6.22;;;1.50;;
71462;SDS011;59266;52.608;13.260;2022-12-29T03:26:55;5.30;;;1.48;;
71462;SDS011;59266;52.608;13.260;2022-12-29T03:29:26;5.88;;;1.67;;
71462;SDS011;59266;52.608;13.260;2022-12-29T03:31:55;6.43;;;1.63;;
71462;SDS011;59266;52.608;13.260;2022-12-29T03:34:24;5.22;;;1.58;;
71462;SDS011;59266;52.608;13.260;2022-12-29T03:36:53;4.68;;;1.40;;
71462;SDS011;59266;52.608;13.260;2022-12-29T03:39:25;5.97;;;1.77;;
71462;SDS011;59266;52.608;13.260;2022-12-29T03:41:55;4.70;;;1.40;;
71462;SDS011;59266;52.608;13.260;2022-12-29T03:44:35;5.18;;;1.30;;
71462;SDS011;59266;52.608;13.260;2022-12-29T03:47:07;3.38;;;1.35;;
71462;SDS011;59266;52.608;13.260;2022-12-29T03:49:36;5.50;;;1.40;;
71462;SDS011;59266;52.608;13.260;2022-12-29T03:52:03;5.13;;;1.60;;
71462;SDS011;59266;52.608;13.260;2022-12-29T03:54:30;4.28;;;1.33;;
71462;SDS011;59266;52.608;13.260;2022-12-29T03:56:58;5.32;;;1.40;;
71462;SDS011;59266;52.608;13.260;2022-12-29T03:59:25;4.13;;;1.50;;
71462;SDS011;59266;52.608;13.260;2022-12-29T04:01:51;5.10;;;1.40;;
71462;SDS011;59266;52.608;13.260;2022-12-29T04:04:18;7.82;;;1.58;;
71462;SDS011;59266;52.608;13.260;2022-12-29T04:06:45;4.28;;;1.50;;
71462;SDS011;59266;52.608;13.260;2022-12-29T04:09:12;4.07;;;1.33;;
71462;SDS011;59266;52.608;13.260;2022-12-29T04:11:38;5.78;;;1.60;;
71462;SDS011;59266;52.608;13.260;2022-12-29T04:14:05;6.60;;;1.70;;
71462;SDS011;59266;52.608;13.260;2022-12-29T04:16:32;5.82;;;1.40;;
71462;SDS011;59266;52.608;13.260;2022-12-29T04:19:02;6.40;;;1.60;;
71462;SDS011;59266;52.608;13.260;2022-12-29T04:21:29;4.78;;;1.60;;
71462;SDS011;59266;52.608;13.260;2022-12-29T04:23:55;5.72;;;1.83;;
71462;SDS011;59266;52.608;13.260;2022-12-29T04:26:22;5.22;;;1.70;;
71462;SDS011;59266;52.608;13.260;2022-12-29T04:28:48;5.97;;;1.60;;
71462;SDS011;59266;52.608;13.260;2022-12-29T04:31:15;4.95;;;1.40;;
71462;SDS011;59266;52.608;13.260;2022-12-29T04:33:43;4.95;;;1.30;;
71462;SDS011;59266;52.608;13.260;2022-12-29T04:36:10;3.72;;;1.30;;
71462;SDS011;59266;52.608;13.260;2022-12-29T04:38:37;5.03;;;1.40;;
71462;SDS011;59266;52.608;13.260;2022-12-29T04:41:04;3.75;;;1.30;;
71462;SDS011;59266;52.608;13.260;2022-12-29T04:43:31;5.63;;;1.58;;
71462;SDS011;59266;52.608;13.260;2022-12-29T04:45:58;3.78;;;1.40;;
71462;SDS011;59266;52.608;13.260;2022-12-29T04:48:24;5.30;;;1.60;;
71462;SDS011;59266;52.608;13.260;2022-12-29T04:50:51;5.25;;;1.50;;
71462;SDS011;59266;52.608;13.260;2022-12-29T04:53:18;4.97;;;1.50;;
71462;SDS011;59266;52.608;13.260;2022-12-29T04:55:47;4.60;;;1.42;;
71462;SDS011;59266;52.608;13.260;2022-12-29T04:58:15;7.28;;;1.63;;
71462;SDS011;59266;52.608;13.260;2022-12-29T05:00:47;5.63;;;1.67;;
71462;SDS011;59266;52.608;13.260;2022-12-29T05:03:14;4.38;;;1.45;;
71462;SDS011;59266;52.608;13.260;2022-12-29T05:05:41;5.07;;;1.70;;
71462;SDS011;59266;52.608;13.260;2022-12-29T05:08:08;4.32;;;1.40;;
71462;SDS011;59266;52.608;13.260;2022-12-29T05:10:34;5.57;;;1.45;;
71462;SDS011;59266;52.608;13.260;2022-12-29T05:13:01;7.28;;;2.00;;
71462;SDS011;59266;52.608;13.260;2022-12-29T05:15:28;5.97;;;1.70;;
71462;SDS011;59266;52.608;13.260;2022-12-29T05:17:54;3.78;;;1.25;;
71462;SDS011;59266;52.608;13.260;2022-12-29T05:20:21;5.53;;;1.67;;
71462;SDS011;59266;52.608;13.260;2022-12-29T05:22:48;3.63;;;1.33;;
71462;SDS011;59266;52.608;13.260;2022-12-29T05:25:14;3.92;;;1.30;;
71462;SDS011;59266;52.608;13.260;2022-12-29T05:27:41;4.07;;;1.35;;
71462;SDS011;59266;52.608;13.260;2022-12-29T05:30:08;6.03;;;1.60;;
71462;SDS011;59266;52.608;13.260;2022-12-29T05:32:35;3.47;;;1.30;;
71462;SDS011;59266;52.608;13.260;2022-12-29T05:35:04;5.05;;;1.58;;
71462;SDS011;59266;52.608;13.260;2022-12-29T05:37:32;5.05;;;1.50;;
71462;SDS011;59266;52.608;13.260;2022-12-29T05:39:59;5.38;;;1.80;;
71462;SDS011;59266;52.608;13.260;2022-12-29T05:42:26;5.65;;;1.50;;
71462;SDS011;59266;52.608;13.260;2022-12-29T05:44:53;4.18;;;1.38;;
71462;SDS011;59266;52.608;13.260;2022-12-29T05:47:20;4.28;;;1.52;;
71462;SDS011;59266;52.608;13.260;2022-12-29T05:49:47;5.18;;;1.40;;
71462;SDS011;59266;52.608;13.260;2022-12-29T05:52:13;5.07;;;1.50;;
71462;SDS011;59266;52.608;13.260;2022-12-29T05:54:40;7.43;;;1.80;;
71462;SDS011;59266;52.608;13.260;2022-12-29T05:57:07;4.38;;;1.48;;
71462;SDS011;59266;52.608;13.260;2022-12-29T05:59:33;5.32;;;1.67;;
71462;SDS011;59266;52.608;13.260;2022-12-29T06:02:00;4.72;;;1.60;;
71462;SDS011;59266;52.608;13.260;2022-12-29T06:04:27;5.85;;;1.50;;
71462;SDS011;59266;52.608;13.260;2022-12-29T06:06:54;4.13;;;1.33;;
71462;SDS011;59266;52.608;13.260;2022-12-29T06:09:21;5.22;;;1.80;;
71462;SDS011;59266;52.608;13.260;2022-12-29T06:11:47;3.83;;;1.33;;
71462;SDS011;59266;52.608;13.260;2022-12-29T06:14:14;4.00;;;1.30;;
71462;SDS011;59266;52.608;13.260;2022-12-29T06:16:41;4.80;;;1.40;;
71462;SDS011;59266;52.608;13.260;2022-12-29T06:19:08;4.75;;;1.40;;
71462;SDS011;59266;52.608;13.260;2022-12-29T06:21:35;4.45;;;1.45;;
71462;SDS011;59266;52.608;13.260;2022-12-29T06:24:02;3.55;;;1.38;;
71462;SDS011;59266;52.608;13.260;2022-12-29T06:26:29;4.25;;;1.25;;
71462;SDS011;59266;52.608;13.260;2022-12-29T06:28:56;4.75;;;1.20;;
71462;SDS011;59266;52.608;13.260;2022-12-29T06:31:23;5.80;;;1.33;;
71462;SDS011;59266;52.608;13.260;2022-12-29T06:33:50;4.50;;;1.48;;
71462;SDS011;59266;52.608;13.260;2022-12-29T06:36:17;4.70;;;1.50;;
71462;SDS011;59266;52.608;13.260;2022-12-29T06:38:44;4.03;;;1.42;;
71462;SDS011;59266;52.608;13.260;2022-12-29T06:41:11;4.13;;;1.38;;
71462;SDS011;59266;52.608;13.260;2022-12-29T06:43:38;4.82;;;1.42;;
71462;SDS011;59266;52.608;13.260;2022-12-29T06:46:05;4.63;;;1.58;;
71462;SDS011;59266;52.608;13.260;2022-12-29T06:48:32;5.70;;;1.73;;
71462;SDS011;59266;52.608;13.260;2022-12-29T06:50:59;4.00;;;1.27;;
71462;SDS011;59266;52.608;13.260;2022-12-29T06:53:26;4.03;;;1.38;;
71462;SDS011;59266;52.608;13.260;2022-12-29T06:55:52;4.28;;;1.60;;
71462;SDS011;59266;52.608;13.260;2022-12-29T06:58:19;4.65;;;1.50;;
71462;SDS011;59266;52.608;13.260;2022-12-29T07:00:45;4.15;;;1.25;;
71462;SDS011;59266;52.608;13.260;2022-12-29T07:03:12;5.45;;;1.67;;
71462;SDS011;59266;52.608;13.260;2022-12-29T07:05:39;5.68;;;1.35;;
71462;SDS011;59266;52.608;13.260;2022-12-29T07:08:06;5.10;;;1.48;;
71462;SDS011;59266;52.608;13.260;2022-12-29T07:10:32;4.15;;;1.40;;
71462;SDS011;59266;52.608;13.260;2022-12-29T07:12:59;4.32;;;1.30;;
71462;SDS011;59266;52.608;13.260;2022-12-29T07:15:26;3.95;;;1.27;;
71462;SDS011;59266;52.608;13.260;2022-12-29T07:17:52;5.13;;;1.33;;
71462;SDS011;59266;52.608;13.260;2022-12-29T07:20:19;4.55;;;1.35;;
71462;SDS011;59266;52.608;13.260;2022-12-29T07:22:52;4.80;;;1.30;;
71462;SDS011;59266;52.608;13.260;2022-12-29T07:25:18;5.43;;;1.50;;
71462;SDS011;59266;52.608;13.260;2022-12-29T07:27:45;4.32;;;1.15;;
71462;SDS011;59266;52.608;13.260;2022-12-29T07:30:12;4.20;;;1.30;;
71462;SDS011;59266;52.608;13.260;2022-12-29T07:32:38;5.53;;;1.20;;
71462;SDS011;59266;52.608;13.260;2022-12-29T07:35:06;3.55;;;1.15;;
71462;SDS011;59266;52.608;13.260;2022-12-29T07:37:33;3.40;;;1.27;;
71462;SDS011;59266;52.608;13.260;2022-12-29T07:40:01;3.83;;;1.30;;
71462;SDS011;59266;52.608;13.260;2022-12-29T07:42:30;4.15;;;1.30;;
71462;SDS011;59266;52.608;13.260;2022-12-29T07:44:57;4.43;;;1.20;;
71462;SDS011;59266;52.608;13.260;2022-12-29T07:47:24;3.72;;;1.40;;
71462;SDS011;59266;52.608;13.260;2022-12-29T07:49:50;4.40;;;1.33;;
71462;SDS011;59266;52.608;13.260;2022-12-29T07:52:17;5.28;;;1.20;;
71462;SDS011;59266;52.608;13.260;2022-12-29T07:54:44;4.10;;;1.20;;
71462;SDS011;59266;52.608;13.260;2022-12-29T07:57:11;4.00;;;1.27;;
71462;SDS011;59266;52.608;13.260;2022-12-29T07:59:38;3.22;;;1.10;;
71462;SDS011;59266;52.608;13.260;2022-12-29T08:02:05;4.07;;;1.30;;
71462;SDS011;59266;52.608;13.260;2022-12-29T08:04:32;3.20;;;1.20;;
71462;SDS011;59266;52.608;13.260;2022-12-29T08:06:59;4.97;;;1.20;;
71462;SDS011;59266;52.608;13.260;2022-12-29T08:09:26;3.78;;;1.20;;
71462;SDS011;59266;52.608;13.260;2022-12-29T08:11:53;3.10;;;1.10;;
71462;SDS011;59266;52.608;13.260;2022-12-29T08:14:20;3.90;;;1.10;;
71462;SDS011;59266;52.608;13.260;2022-12-29T08:16:46;3.67;;;1.30;;
71462;SDS011;59266;52.608;13.260;2022-12-29T08:19:13;3.25;;;1.10;;
71462;SDS011;59266;52.608;13.260;2022-12-29T08:21:40;3.10;;;1.05;;
71462;SDS011;59266;52.608;13.260;2022-12-29T08:24:07;4.05;;;1.30;;
71462;SDS011;59266;52.608;13.260;2022-12-29T08:26:35;4.25;;;1.35;;
71462;SDS011;59266;52.608;13.260;2022-12-29T08:29:01;3.67;;;1.38;;
71462;SDS011;59266;52.608;13.260;2022-12-29T08:31:28;4.03;;;1.23;;
71462;SDS011;59266;52.608;13.260;2022-12-29T08:33:55;5.57;;;1.40;;
71462;SDS011;59266;52.608;13.260;2022-12-29T08:36:21;4.30;;;1.27;;
71462;SDS011;59266;52.608;13.260;2022-12-29T08:38:49;3.85;;;1.30;;
71462;SDS011;59266;52.608;13.260;2022-12-29T08:41:15;4.38;;;1.30;;
71462;SDS011;59266;52.608;13.260;2022-12-29T08:43:45;3.95;;;1.30;;
71462;SDS011;59266;52.608;13.260;2022-12-29T08:46:13;3.97;;;1.00;;
71462;SDS011;59266;52.608;13.260;2022-12-29T08:48:40;3.42;;;1.20;;
71462;SDS011;59266;52.608;13.260;2022-12-29T08:51:06;5.15;;;1.20;;
71462;SDS011;59266;52.608;13.260;2022-12-29T08:53:34;3.95;;;1.10;;
71462;SDS011;59266;52.608;13.260;2022-12-29T08:56:01;4.53;;;1.17;;
71462;SDS011;59266;52.608;13.260;2022-12-29T08:58:31;4.93;;;1.13;;
71462;SDS011;59266;52.608;13.260;2022-12-29T09:00:58;4.15;;;1.20;;
71462;SDS011;59266;52.608;13.260;2022-12-29T09:03:26;5.80;;;1.40;;
71462;SDS011;59266;52.608;13.260;2022-12-29T09:06:14;3.88;;;1.20;;
71462;SDS011;59266;52.608;13.260;2022-12-29T09:08:44;3.42;;;1.15;;
71462;SDS011;59266;52.608;13.260;2022-12-29T09:11:12;4.72;;;1.30;;
71462;SDS011;59266;52.608;13.260;2022-12-29T09:13:41;5.15;;;1.35;;
71462;SDS011;59266;52.608;13.260;2022-12-29T09:16:08;3.75;;;1.10;;
71462;SDS011;59266;52.608;13.260;2022-12-29T09:18:35;6.10;;;1.55;;
71462;SDS011;59266;52.608;13.260;2022-12-29T09:21:04;4.40;;;1.30;;
71462;SDS011;59266;52.608;13.260;2022-12-29T09:23:32;3.10;;;1.00;;
71462;SDS011;59266;52.608;13.260;2022-12-29T09:26:03;3.65;;;1.33;;
71462;SDS011;59266;52.608;13.260;2022-12-29T09:28:30;3.15;;;0.98;;
71462;SDS011;59266;52.608;13.260;2022-12-29T09:30:57;3.95;;;1.40;;
71462;SDS011;59266;52.608;13.260;2022-12-29T09:33:24;4.32;;;1.13;;
71462;SDS011;59266;52.608;13.260;2022-12-29T09:35:52;3.72;;;1.20;;
71462;SDS011;59266;52.608;13.260;2022-12-29T09:38:20;3.97;;;1.20;;
71462;SDS011;59266;52.608;13.260;2022-12-29T09:40:53;3.55;;;1.00;;
71462;SDS011;59266;52.608;13.260;2022-12-29T09:46:18;4.60;;;1.30;;
71462;SDS011;59266;52.608;13.260;2022-12-29T09:51:29;3.90;;;1.10;;
71462;SDS011;59266;52.608;13.260;2022-12-29T09:54:02;7.70;;;1.40;;
71462;SDS011;59266;52.608;13.260;2022-12-29T09:56:39;4.75;;;1.30;;
71462;SDS011;59266;52.608;13.260;2022-12-29T09:59:14;4.20;;;1.23;;
71462;SDS011;59266;52.608;13.260;2022-12-29T10:01:46;3.38;;;0.95;;
71462;SDS011;59266;52.608;13.260;2022-12-29T10:04:21;3.22;;;1.15;;
71462;SDS011;59266;52.608;13.260;2022-12-29T10:06:51;4.53;;;1.20;;
71462;SDS011;59266;52.608;13.260;2022-12-29T10:09:46;2.47;;;1.02;;
71462;SDS011;59266;52.608;13.260;2022-12-29T10:12:45;3.05;;;1.00;;
71462;SDS011;59266;52.608;13.260;2022-12-29T10:15:31;4.15;;;1.10;;
71462;SDS011;59266;52.608;13.260;2022-12-29T10:21:01;3.33;;;1.10;;
71462;SDS011;59266;52.608;13.260;2022-12-29T10:23:48;3.15;;;1.10;;
71462;SDS011;59266;52.608;13.260;2022-12-29T10:26:23;4.57;;;1.25;;
71462;SDS011;59266;52.608;13.260;2022-12-29T10:28:57;4.72;;;1.20;;
71462;SDS011;59266;52.608;13.260;2022-12-29T10:31:37;4.80;;;1.10;;
71462;SDS011;59266;52.608;13.260;2022-12-29T10:34:15;4.65;;;1.00;;
71462;SDS011;59266;52.608;13.260;2022-12-29T10:36:48;4.05;;;1.02;;
71462;SDS011;59266;52.608;13.260;2022-12-29T10:39:22;4.13;;;1.10;;
71462;SDS011;59266;52.608;13.260;2022-12-29T10:41:59;5.32;;;1.10;;
71462;SDS011;59266;52.608;13.260;2022-12-29T10:44:42;4.80;;;1.25;;
71462;SDS011;59266;52.608;13.260;2022-12-29T10:47:12;3.78;;;1.10;;
71462;SDS011;59266;52.608;13.260;2022-12-29T10:49:44;3.88;;;1.33;;
71462;SDS011;59266;52.608;13.260;2022-12-29T10:52:14;2.63;;;1.05;;
71462;SDS011;59266;52.608;13.260;2022-12-29T10:54:54;3.60;;;1.10;;
71462;SDS011;59266;52.608;13.260;2022-12-29T10:57:32;5.45;;;1.70;;
71462;SDS011;59266;52.608;13.260;2022-12-29T11:00:00;4.20;;;0.98;;
71462;SDS011;59266;52.608;13.260;2022-12-29T11:02:48;4.40;;;1.10;;
71462;SDS011;59266;52.608;13.260;2022-12-29T11:05:29;2.50;;;1.02;;
71462;SDS011;59266;52.608;13.260;2022-12-29T11:08:17;3.78;;;1.10;;
71462;SDS011;59266;52.608;13.260;2022-12-29T11:10:46;4.88;;;1.20;;
71462;SDS011;59266;52.608;13.260;2022-12-29T11:16:04;5.32;;;1.10;;
71462;SDS011;59266;52.608;13.260;2022-12-29T11:18:32;3.50;;;1.00;;
71462;SDS011;59266;52.608;13.260;2022-12-29T11:21:03;3.17;;;1.13;;
71462;SDS011;59266;52.608;13.260;2022-12-29T11:23:37;6.32;;;1.30;;
71462;SDS011;59266;52.608;13.260;2022-12-29T11:26:20;5.20;;;0.90;;
71462;SDS011;59266;52.608;13.260;2022-12-29T11:29:14;3.22;;;1.15;;
71462;SDS011;59266;52.608;13.260;2022-12-29T11:31:47;3.70;;;1.20;;
71462;SDS011;59266;52.608;13.260;2022-12-29T11:34:26;2.90;;;1.00;;
71462;SDS011;59266;52.608;13.260;2022-12-29T11:37:06;2.47;;;1.00;;
71462;SDS011;59266;52.608;13.260;2022-12-29T11:42:35;4.97;;;1.20;;
71462;SDS011;59266;52.608;13.260;2022-12-29T11:45:14;2.95;;;1.13;;
71462;SDS011;59266;52.608;13.260;2022-12-29T11:47:45;5.25;;;1.10;;
71462;SDS011;59266;52.608;13.260;2022-12-29T11:50:21;3.72;;;1.10;;
71462;SDS011;59266;52.608;13.260;2022-12-29T11:52:50;3.97;;;1.00;;
71462;SDS011;59266;52.608;13.260;2022-12-29T11:55:27;24.23;;;1.38;;
71462;SDS011;59266;52.608;13.260;2022-12-29T11:57:57;3.42;;;1.10;;
71462;SDS011;59266;52.608;13.260;2022-12-29T12:00:27;1.83;;;0.70;;
71462;SDS011;59266;52.608;13.260;2022-12-29T12:03:00;2.67;;;0.98;;
71462;SDS011;59266;52.608;13.260;2022-12-29T12:05:32;3.13;;;0.82;;
71462;SDS011;59266;52.608;13.260;2022-12-29T12:10:58;2.47;;;0.90;;
71462;SDS011;59266;52.608;13.260;2022-12-29T12:13:34;2.70;;;0.82;;
71462;SDS011;59266;52.608;13.260;2022-12-29T12:16:14;3.42;;;1.05;;
71462;SDS011;59266;52.608;13.260;2022-12-29T12:18:56;2.75;;;1.00;;
71462;SDS011;59266;52.608;13.260;2022-12-29T12:24:34;3.67;;;1.10;;
71462;SDS011;59266;52.608;13.260;2022-12-29T12:27:21;3.67;;;0.90;;
71462;SDS011;59266;52.608;13.260;2022-12-29T12:30:04;2.22;;;0.80;;
71462;SDS011;59266;52.608;13.260;2022-12-29T12:35:11;2.28;;;0.82;;
71462;SDS011;59266;52.608;13.260;2022-12-29T12:37:57;2.13;;;0.75;;
71462;SDS011;59266;52.608;13.260;2022-12-29T12:40:49;4.18;;;1.15;;
71462;SDS011;59266;52.608;13.260;2022-12-29T12:46:25;2.90;;;0.90;;
71462;SDS011;59266;52.608;13.260;2022-12-29T12:49:24;1.17;;;0.60;;
71462;SDS011;59266;52.608;13.260;2022-12-29T12:52:07;3.78;;;0.65;;
71462;SDS011;59266;52.608;13.260;2022-12-29T12:54:50;3.45;;;0.93;;
71462;SDS011;59266;52.608;13.260;2022-12-29T12:57:48;1.95;;;0.70;;
71462;SDS011;59266;52.608;13.260;2022-12-29T13:00:33;1.83;;;0.65;;
71462;SDS011;59266;52.608;13.260;2022-12-29T13:03:38;1.40;;;0.60;;
71462;SDS011;59266;52.608;13.260;2022-12-29T13:06:17;2.42;;;0.75;;
71462;SDS011;59266;52.608;13.260;2022-12-29T13:11:52;1.13;;;0.52;;
71462;SDS011;59266;52.608;13.260;2022-12-29T13:14:44;2.22;;;0.70;;
71462;SDS011;59266;52.608;13.260;2022-12-29T13:17:32;3.17;;;0.70;;
71462;SDS011;59266;52.608;13.260;2022-12-29T13:22:51;2.13;;;0.75;;
71462;SDS011;59266;52.608;13.260;2022-12-29T13:25:43;3.75;;;1.20;;
71462;SDS011;59266;52.608;13.260;2022-12-29T13:28:22;3.15;;;0.90;;
71462;SDS011;59266;52.608;13.260;2022-12-29T13:31:00;1.90;;;0.70;;
71462;SDS011;59266;52.608;13.260;2022-12-29T13:34:00;3.22;;;1.00;;
71462;SDS011;59266;52.608;13.260;2022-12-29T13:37:00;3.25;;;0.98;;
71462;SDS011;59266;52.608;13.260;2022-12-29T13:39:37;3.25;;;1.00;;
71462;SDS011;59266;52.608;13.260;2022-12-29T13:42:07;3.40;;;0.90;;
71462;SDS011;59266;52.608;13.260;2022-12-29T13:44:39;4.53;;;1.00;;
71462;SDS011;59266;52.608;13.260;2022-12-29T13:47:27;1.73;;;0.90;;
71462;SDS011;59266;52.608;13.260;2022-12-29T13:50:00;4.45;;;1.00;;
71462;SDS011;59266;52.608;13.260;2022-12-29T13:55:21;2.30;;;0.63;;
71462;SDS011;59266;52.608;13.260;2022-12-29T14:00:45;5.18;;;1.05;;
71462;SDS011;59266;52.608;13.260;2022-12-29T14:12:27;3.05;;;0.82;;
71462;SDS011;59266;52.608;13.260;2022-12-29T14:15:02;2.40;;;0.85;;
71462;SDS011;59266;52.608;13.260;2022-12-29T14:17:40;4.72;;;1.20;;
71462;SDS011;59266;52.608;13.260;2022-12-29T14:20:18;2.75;;;1.00;;
71462;SDS011;59266;52.608;13.260;2022-12-29T14:22:57;3.10;;;0.90;;
71462;SDS011;59266;52.608;13.260;2022-12-29T14:28:33;2.65;;;0.90;;
71462;SDS011;59266;52.608;13.260;2022-12-29T14:31:43;2.75;;;0.90;;
71462;SDS011;59266;52.608;13.260;2022-12-29T14:36:42;3.80;;;1.10;;
71462;SDS011;59266;52.608;13.260;2022-12-29T14:50:42;3.63;;;1.13;;
71462;SDS011;59266;52.608;13.260;2022-12-29T14:56:16;3.58;;;1.20;;
71462;SDS011;59266;52.608;13.260;2022-12-29T14:58:47;4.93;;;1.23;;
71462;SDS011;59266;52.608;13.260;2022-12-29T15:03:59;5.05;;;1.63;;
71462;SDS011;59266;52.608;13.260;2022-12-29T15:06:48;3.10;;;0.98;;
71462;SDS011;59266;52.608;13.260;2022-12-29T15:09:19;2.08;;;0.70;;
71462;SDS011;59266;52.608;13.260;2022-12-29T15:12:01;4.68;;;0.98;;
71462;SDS011;59266;52.608;13.260;2022-12-29T15:14:49;3.47;;;0.73;;
71462;SDS011;59266;52.608;13.260;2022-12-29T15:19:50;3.58;;;0.93;;
71462;SDS011;59266;52.608;13.260;2022-12-29T15:22:16;3.65;;;0.80;;
71462;SDS011;59266;52.608;13.260;2022-12-29T15:24:43;3.30;;;0.73;;
71462;SDS011;59266;52.608;13.260;2022-12-29T15:27:15;3.72;;;0.82;;
71462;SDS011;59266;52.608;13.260;2022-12-29T15:29:45;3.05;;;0.90;;
71462;SDS011;59266;52.608;13.260;2022-12-29T15:32:18;3.13;;;1.13;;
71462;SDS011;59266;52.608;13.260;2022-12-29T15:34:48;3.13;;;1.00;;
71462;SDS011;59266;52.608;13.260;2022-12-29T15:37:26;4.53;;;1.10;;
71462;SDS011;59266;52.608;13.260;2022-12-29T15:39:59;4.65;;;0.95;;
71462;SDS011;59266;52.608;13.260;2022-12-29T15:42:29;3.75;;;1.40;;
71462;SDS011;59266;52.608;13.260;2022-12-29T15:45:07;5.70;;;1.17;;
71462;SDS011;59266;52.608;13.260;2022-12-29T15:47:37;3.92;;;1.17;;
71462;SDS011;59266;52.608;13.260;2022-12-29T15:50:07;2.83;;;1.00;;
71462;SDS011;59266;52.608;13.260;2022-12-29T15:52:44;4.95;;;1.33;;
71462;SDS011;59266;52.608;13.260;2022-12-29T15:55:32;5.35;;;1.30;;
71462;SDS011;59266;52.608;13.260;2022-12-29T15:58:01;5.40;;;1.15;;
71462;SDS011;59266;52.608;13.260;2022-12-29T16:00:34;7.03;;;1.58;;
71462;SDS011;59266;52.608;13.260;2022-12-29T16:03:04;3.78;;;1.17;;
71462;SDS011;59266;52.608;13.260;2022-12-29T16:05:36;6.50;;;1.63;;
71462;SDS011;59266;52.608;13.260;2022-12-29T16:08:20;6.63;;;1.65;;
71462;SDS011;59266;52.608;13.260;2022-12-29T16:10:59;6.32;;;1.70;;
71462;SDS011;59266;52.608;13.260;2022-12-29T16:13:31;7.25;;;1.70;;
71462;SDS011;59266;52.608;13.260;2022-12-29T16:16:09;4.50;;;1.40;;
71462;SDS011;59266;52.608;13.260;2022-12-29T16:18:42;5.60;;;1.23;;
71462;SDS011;59266;52.608;13.260;2022-12-29T16:21:16;3.08;;;1.02;;
71462;SDS011;59266;52.608;13.260;2022-12-29T16:23:52;3.67;;;1.20;;
71462;SDS011;59266;52.608;13.260;2022-12-29T16:26:22;5.63;;;1.10;;
71462;SDS011;59266;52.608;13.260;2022-12-29T16:28:50;2.88;;;1.10;;
71462;SDS011;59266;52.608;13.260;2022-12-29T16:31:32;4.45;;;1.10;;
71462;SDS011;59266;52.608;13.260;2022-12-29T16:34:23;2.50;;;0.90;;
71462;SDS011;59266;52.608;13.260;2022-12-29T16:36:53;5.15;;;1.00;;
71462;SDS011;59266;52.608;13.260;2022-12-29T16:39:38;4.63;;;1.27;;
71462;SDS011;59266;52.608;13.260;2022-12-29T16:50:38;5.28;;;1.20;;